sensor_id;sensor_type;location;lat;lon;timestamp;pressure;altitude;pressure_sealevel;temperature;humidity
40946;BME280;55635;50.264;11.918;2022-11-15T00:02:31;95571.97;;;5.40;96.32
40946;BME280;55635;50.264;11.918;2022-11-15T00:05:35;95571.66;;;5.43;96.65
40946;BME280;55635;50.264;11.918;2022-11-15T00:08:35;95571.75;;;5.34;97.36
40946;BME280;55635;50.264;11.918;2022-11-15T00:11:34;95567.00;;;5.37;97.87
40946;BME280;55635;50.264;11.918;2022-11-15T00:14:34;95545.97;;;5.37;97.93
40946;BME280;55635;50.264;11.918;2022-11-15T00:17:36;95554.97;;;5.61;97.11
40946;BME280;55635;50.264;11.918;2022-11-15T00:20:36;95551.94;;;5.47;97.42
40946;BME280;55635;50.264;11.918;2022-11-15T00:23:36;95547.59;;;5.64;95.97
40946;BME280;55635;50.264;11.918;2022-11-15T00:26:36;95547.09;;;5.61;96.08
40946;BME280;55635;50.264;11.918;2022-11-15T00:29:36;95538.38;;;5.60;95.16
40946;BME280;55635;50.264;11.918;2022-11-15T00:32:37;95552.78;;;5.48;95.33
40946;BME280;55635;50.264;11.918;2022-11-15T00:35:37;95545.28;;;5.61;94.95
40946;BME280;55635;50.264;11.918;2022-11-15T00:38:39;95549.59;;;5.70;94.57
40946;BME280;55635;50.264;11.918;2022-11-15T00:41:38;95555.53;;;5.72;95.24
40946;BME280;55635;50.264;11.918;2022-11-15T00:44:38;95552.91;;;5.72;95.43
40946;BME280;55635;50.264;11.918;2022-11-15T00:47:37;95551.28;;;5.79;95.10
40946;BME280;55635;50.264;11.918;2022-11-15T00:50:37;95553.00;;;5.88;94.76
40946;BME280;55635;50.264;11.918;2022-11-15T00:53:36;95550.06;;;5.91;93.00
40946;BME280;55635;50.264;11.918;2022-11-15T00:56:36;95549.63;;;6.04;92.88
40946;BME280;55635;50.264;11.918;2022-11-15T00:59:35;95534.91;;;5.85;92.77
40946;BME280;55635;50.264;11.918;2022-11-15T01:02:35;95540.06;;;5.69;92.67
40946;BME280;55635;50.264;11.918;2022-11-15T01:05:37;95537.91;;;5.65;93.16
40946;BME280;55635;50.264;11.918;2022-11-15T01:08:39;95535.53;;;5.54;94.23
40946;BME280;55635;50.264;11.918;2022-11-15T01:11:39;95531.94;;;5.55;94.83
40946;BME280;55635;50.264;11.918;2022-11-15T01:14:39;95535.09;;;5.58;94.57
40946;BME280;55635;50.264;11.918;2022-11-15T01:17:38;95529.38;;;5.37;94.63
40946;BME280;55635;50.264;11.918;2022-11-15T01:20:42;95525.56;;;5.31;95.48
40946;BME280;55635;50.264;11.918;2022-11-15T01:23:41;95535.63;;;5.36;96.56
40946;BME280;55635;50.264;11.918;2022-11-15T01:26:41;95534.69;;;5.45;96.80
40946;BME280;55635;50.264;11.918;2022-11-15T01:29:40;95538.00;;;5.21;96.96
40946;BME280;55635;50.264;11.918;2022-11-15T01:32:40;95532.53;;;5.40;96.77
40946;BME280;55635;50.264;11.918;2022-11-15T01:35:39;95531.84;;;5.38;95.73
40946;BME280;55635;50.264;11.918;2022-11-15T01:38:39;95521.00;;;5.41;94.94
40946;BME280;55635;50.264;11.918;2022-11-15T01:41:39;95514.16;;;5.48;94.47
40946;BME280;55635;50.264;11.918;2022-11-15T01:44:49;95511.38;;;5.50;93.98
40946;BME280;55635;50.264;11.918;2022-11-15T01:47:52;95522.06;;;5.57;93.94
40946;BME280;55635;50.264;11.918;2022-11-15T01:50:53;95512.81;;;5.44;93.91
40946;BME280;55635;50.264;11.918;2022-11-15T01:53:55;95512.44;;;5.31;94.74
40946;BME280;55635;50.264;11.918;2022-11-15T01:57:07;95505.72;;;5.37;95.39
40946;BME280;55635;50.264;11.918;2022-11-15T02:00:09;95504.47;;;5.49;95.02
40946;BME280;55635;50.264;11.918;2022-11-15T02:03:09;95496.59;;;5.49;94.83
40946;BME280;55635;50.264;11.918;2022-11-15T02:06:09;95496.03;;;5.71;93.87
40946;BME280;55635;50.264;11.918;2022-11-15T02:09:09;95492.44;;;5.80;93.14
40946;BME280;55635;50.264;11.918;2022-11-15T02:12:10;95497.31;;;5.93;92.34
40946;BME280;55635;50.264;11.918;2022-11-15T02:15:12;95498.47;;;5.98;90.56
40946;BME280;55635;50.264;11.918;2022-11-15T02:18:25;95518.41;;;6.17;90.92
40946;BME280;55635;50.264;11.918;2022-11-15T02:21:44;95516.28;;;6.21;91.10
40946;BME280;55635;50.264;11.918;2022-11-15T02:25:30;95511.19;;;6.27;90.84
40946;BME280;55635;50.264;11.918;2022-11-15T02:32:34;95507.09;;;6.33;90.63
40946;BME280;55635;50.264;11.918;2022-11-15T02:42:16;95481.72;;;6.16;91.51
40946;BME280;55635;50.264;11.918;2022-11-15T02:45:51;95486.00;;;6.17;89.40
40946;BME280;55635;50.264;11.918;2022-11-15T02:48:52;95470.38;;;5.73;91.67
40946;BME280;55635;50.264;11.918;2022-11-15T02:51:52;95467.38;;;5.60;92.99
40946;BME280;55635;50.264;11.918;2022-11-15T02:54:56;95468.00;;;5.54;94.33
40946;BME280;55635;50.264;11.918;2022-11-15T03:09:28;95459.19;;;5.29;95.70
40946;BME280;55635;50.264;11.918;2022-11-15T03:12:49;95458.72;;;5.34;95.67
40946;BME280;55635;50.264;11.918;2022-11-15T03:16:03;95457.28;;;5.39;95.67
40946;BME280;55635;50.264;11.918;2022-11-15T03:19:30;95452.91;;;5.56;94.09
40946;BME280;55635;50.264;11.918;2022-11-15T03:22:43;95447.03;;;5.62;93.69
40946;BME280;55635;50.264;11.918;2022-11-15T03:25:49;95440.75;;;5.55;93.84
40946;BME280;55635;50.264;11.918;2022-11-15T03:29:13;95427.59;;;5.55;94.50
40946;BME280;55635;50.264;11.918;2022-11-15T03:32:23;95429.78;;;5.68;92.54
40946;BME280;55635;50.264;11.918;2022-11-15T03:35:27;95421.63;;;5.45;92.09
40946;BME280;55635;50.264;11.918;2022-11-15T03:38:30;95416.25;;;5.55;93.39
40946;BME280;55635;50.264;11.918;2022-11-15T03:45:28;95416.94;;;5.65;93.03
40946;BME280;55635;50.264;11.918;2022-11-15T03:48:36;95415.34;;;5.80;91.17
40946;BME280;55635;50.264;11.918;2022-11-15T03:51:37;95413.03;;;5.85;90.68
40946;BME280;55635;50.264;11.918;2022-11-15T03:54:49;95413.56;;;5.88;90.63
40946;BME280;55635;50.264;11.918;2022-11-15T03:57:53;95402.72;;;5.91;90.64
40946;BME280;55635;50.264;11.918;2022-11-15T04:00:53;95405.03;;;6.02;91.09
40946;BME280;55635;50.264;11.918;2022-11-15T04:03:52;95414.25;;;6.07;90.91
40946;BME280;55635;50.264;11.918;2022-11-15T04:06:52;95405.06;;;6.11;90.48
40946;BME280;55635;50.264;11.918;2022-11-15T04:09:51;95410.84;;;6.14;90.24
40946;BME280;55635;50.264;11.918;2022-11-15T04:13:04;95406.69;;;6.12;90.15
40946;BME280;55635;50.264;11.918;2022-11-15T04:16:04;95411.63;;;6.07;89.92
40946;BME280;55635;50.264;11.918;2022-11-15T04:19:03;95424.31;;;6.11;90.25
40946;BME280;55635;50.264;11.918;2022-11-15T04:22:21;95414.94;;;6.17;90.65
40946;BME280;55635;50.264;11.918;2022-11-15T04:25:40;95402.25;;;6.04;90.68
40946;BME280;55635;50.264;11.918;2022-11-15T04:28:40;95396.13;;;5.87;90.89
40946;BME280;55635;50.264;11.918;2022-11-15T04:32:04;95389.91;;;5.96;90.21
40946;BME280;55635;50.264;11.918;2022-11-15T04:35:04;95403.41;;;6.01;89.93
40946;BME280;55635;50.264;11.918;2022-11-15T04:38:06;95403.56;;;6.00;89.41
40946;BME280;55635;50.264;11.918;2022-11-15T04:41:06;95392.72;;;6.03;89.25
40946;BME280;55635;50.264;11.918;2022-11-15T04:44:05;95401.09;;;5.98;89.76
40946;BME280;55635;50.264;11.918;2022-11-15T04:47:05;95383.91;;;5.78;90.86
40946;BME280;55635;50.264;11.918;2022-11-15T04:50:05;95399.38;;;5.81;91.17
40946;BME280;55635;50.264;11.918;2022-11-15T04:53:04;95371.22;;;5.49;92.01
40946;BME280;55635;50.264;11.918;2022-11-15T04:56:04;95377.94;;;5.44;93.24
40946;BME280;55635;50.264;11.918;2022-11-15T04:59:03;95375.91;;;5.30;94.52
40946;BME280;55635;50.264;11.918;2022-11-15T05:02:03;95375.75;;;5.31;94.52
40946;BME280;55635;50.264;11.918;2022-11-15T05:05:02;95388.50;;;5.18;95.00
40946;BME280;55635;50.264;11.918;2022-11-15T05:08:02;95378.13;;;5.09;94.49
40946;BME280;55635;50.264;11.918;2022-11-15T05:11:02;95374.53;;;5.10;94.13
40946;BME280;55635;50.264;11.918;2022-11-15T05:14:02;95374.63;;;5.00;95.73
40946;BME280;55635;50.264;11.918;2022-11-15T05:17:01;95376.75;;;4.97;96.89
40946;BME280;55635;50.264;11.918;2022-11-15T05:20:00;95384.53;;;5.06;97.16
40946;BME280;55635;50.264;11.918;2022-11-15T05:23:00;95374.63;;;5.00;96.48
40946;BME280;55635;50.264;11.918;2022-11-15T05:26:01;95373.69;;;5.09;95.04
40946;BME280;55635;50.264;11.918;2022-11-15T05:29:00;95372.53;;;5.04;94.85
40946;BME280;55635;50.264;11.918;2022-11-15T05:31:59;95359.19;;;4.97;94.04
40946;BME280;55635;50.264;11.918;2022-11-15T05:34:59;95376.16;;;5.11;94.17
40946;BME280;55635;50.264;11.918;2022-11-15T05:37:58;95363.72;;;5.21;93.82
40946;BME280;55635;50.264;11.918;2022-11-15T05:41:01;95358.44;;;5.13;92.91
40946;BME280;55635;50.264;11.918;2022-11-15T05:44:03;95373.59;;;5.27;93.39
40946;BME280;55635;50.264;11.918;2022-11-15T05:47:06;95365.44;;;5.38;91.74
40946;BME280;55635;50.264;11.918;2022-11-15T05:50:14;95370.56;;;5.56;89.90
40946;BME280;55635;50.264;11.918;2022-11-15T05:53:16;95366.06;;;5.32;90.50
40946;BME280;55635;50.264;11.918;2022-11-15T05:56:18;95366.41;;;5.37;89.84
40946;BME280;55635;50.264;11.918;2022-11-15T05:59:18;95373.97;;;5.32;89.92
40946;BME280;55635;50.264;11.918;2022-11-15T06:02:17;95370.38;;;5.41;91.30
40946;BME280;55635;50.264;11.918;2022-11-15T06:05:17;95365.91;;;5.33;91.39
40946;BME280;55635;50.264;11.918;2022-11-15T06:08:16;95373.00;;;5.41;91.24
40946;BME280;55635;50.264;11.918;2022-11-15T06:11:16;95360.50;;;5.43;91.03
40946;BME280;55635;50.264;11.918;2022-11-15T06:14:16;95382.44;;;5.68;89.29
40946;BME280;55635;50.264;11.918;2022-11-15T06:17:15;95365.00;;;5.59;89.27
40946;BME280;55635;50.264;11.918;2022-11-15T06:20:14;95373.22;;;5.64;88.78
40946;BME280;55635;50.264;11.918;2022-11-15T06:23:14;95372.28;;;5.81;88.29
40946;BME280;55635;50.264;11.918;2022-11-15T06:26:13;95366.81;;;5.66;87.86
40946;BME280;55635;50.264;11.918;2022-11-15T06:29:13;95368.78;;;5.56;88.28
40946;BME280;55635;50.264;11.918;2022-11-15T06:32:12;95362.00;;;5.45;88.33
40946;BME280;55635;50.264;11.918;2022-11-15T06:35:14;95361.84;;;5.55;88.09
40946;BME280;55635;50.264;11.918;2022-11-15T06:38:13;95369.63;;;5.65;87.50
40946;BME280;55635;50.264;11.918;2022-11-15T06:41:13;95378.34;;;5.73;87.14
40946;BME280;55635;50.264;11.918;2022-11-15T06:44:13;95367.81;;;5.73;87.53
40946;BME280;55635;50.264;11.918;2022-11-15T06:47:13;95386.28;;;5.97;86.29
40946;BME280;55635;50.264;11.918;2022-11-15T06:50:13;95358.00;;;5.91;85.67
40946;BME280;55635;50.264;11.918;2022-11-15T06:53:12;95374.28;;;6.03;85.54
40946;BME280;55635;50.264;11.918;2022-11-15T06:56:12;95373.81;;;6.40;84.43
40946;BME280;55635;50.264;11.918;2022-11-15T06:59:11;95377.38;;;6.79;82.75
40946;BME280;55635;50.264;11.918;2022-11-15T07:02:13;95363.81;;;6.98;81.96
40946;BME280;55635;50.264;11.918;2022-11-15T07:05:14;95370.56;;;7.01;80.63
40946;BME280;55635;50.264;11.918;2022-11-15T07:08:14;95361.47;;;7.11;80.49
40946;BME280;55635;50.264;11.918;2022-11-15T07:11:13;95368.41;;;7.04;80.54
40946;BME280;55635;50.264;11.918;2022-11-15T07:14:13;95358.63;;;6.74;81.50
40946;BME280;55635;50.264;11.918;2022-11-15T07:17:13;95369.03;;;6.60;82.78
40946;BME280;55635;50.264;11.918;2022-11-15T07:20:13;95366.34;;;6.84;81.72
40946;BME280;55635;50.264;11.918;2022-11-15T07:23:12;95363.06;;;6.82;82.10
40946;BME280;55635;50.264;11.918;2022-11-15T07:26:12;95372.56;;;7.38;80.61
40946;BME280;55635;50.264;11.918;2022-11-15T07:29:11;95370.22;;;7.82;78.30
40946;BME280;55635;50.264;11.918;2022-11-15T07:32:10;95371.22;;;8.03;76.84
40946;BME280;55635;50.264;11.918;2022-11-15T07:35:10;95348.63;;;8.23;76.05
40946;BME280;55635;50.264;11.918;2022-11-15T07:38:10;95363.78;;;8.30;76.02
40946;BME280;55635;50.264;11.918;2022-11-15T07:41:10;95358.41;;;8.75;74.57
40946;BME280;55635;50.264;11.918;2022-11-15T07:44:09;95356.25;;;8.93;73.17
40946;BME280;55635;50.264;11.918;2022-11-15T07:47:09;95362.09;;;8.89;74.33
40946;BME280;55635;50.264;11.918;2022-11-15T07:50:08;95359.75;;;9.23;73.60
40946;BME280;55635;50.264;11.918;2022-11-15T07:53:09;95355.13;;;9.97;70.28
40946;BME280;55635;50.264;11.918;2022-11-15T07:56:10;95366.81;;;10.02;69.82
40946;BME280;55635;50.264;11.918;2022-11-15T07:59:09;95352.31;;;10.89;68.09
40946;BME280;55635;50.264;11.918;2022-11-15T08:02:09;95351.59;;;11.36;67.05
40946;BME280;55635;50.264;11.918;2022-11-15T08:05:08;95351.97;;;11.33;65.97
40946;BME280;55635;50.264;11.918;2022-11-15T08:08:10;95356.75;;;11.51;65.97
40946;BME280;55635;50.264;11.918;2022-11-15T08:11:10;95347.56;;;11.94;65.30
40946;BME280;55635;50.264;11.918;2022-11-15T08:14:09;95337.13;;;11.93;65.15
40946;BME280;55635;50.264;11.918;2022-11-15T08:17:09;95356.72;;;11.85;66.07
40946;BME280;55635;50.264;11.918;2022-11-15T08:20:09;95351.97;;;11.33;67.30
40946;BME280;55635;50.264;11.918;2022-11-15T08:23:11;95347.63;;;11.26;68.28
40946;BME280;55635;50.264;11.918;2022-11-15T08:26:12;95339.41;;;11.14;69.29
40946;BME280;55635;50.264;11.918;2022-11-15T08:29:11;95341.56;;;11.38;67.43
40946;BME280;55635;50.264;11.918;2022-11-15T08:32:11;95332.00;;;11.85;66.69
40946;BME280;55635;50.264;11.918;2022-11-15T08:35:11;95324.09;;;11.16;68.17
40946;BME280;55635;50.264;11.918;2022-11-15T08:38:10;95330.91;;;10.91;68.12
40946;BME280;55635;50.264;11.918;2022-11-15T08:41:30;95330.59;;;11.07;69.66
40946;BME280;55635;50.264;11.918;2022-11-15T08:44:30;95326.69;;;10.48;70.08
40946;BME280;55635;50.264;11.918;2022-11-15T08:47:30;95335.34;;;11.18;68.20
40946;BME280;55635;50.264;11.918;2022-11-15T08:50:29;95323.81;;;10.70;68.82
40946;BME280;55635;50.264;11.918;2022-11-15T08:53:29;95334.19;;;10.93;69.13
40946;BME280;55635;50.264;11.918;2022-11-15T08:56:29;95327.31;;;11.05;68.65
40946;BME280;55635;50.264;11.918;2022-11-15T08:59:28;95306.41;;;10.61;69.52
40946;BME280;55635;50.264;11.918;2022-11-15T09:02:28;95318.31;;;10.72;70.73
40946;BME280;55635;50.264;11.918;2022-11-15T09:05:27;95317.66;;;10.91;70.23
40946;BME280;55635;50.264;11.918;2022-11-15T09:08:30;95307.53;;;11.08;70.66
40946;BME280;55635;50.264;11.918;2022-11-15T09:11:31;95309.66;;;10.57;70.55
40946;BME280;55635;50.264;11.918;2022-11-15T09:14:30;95301.63;;;10.78;70.26
40946;BME280;55635;50.264;11.918;2022-11-15T09:17:29;95309.56;;;11.06;70.92
40946;BME280;55635;50.264;11.918;2022-11-15T09:20:29;95301.22;;;11.56;69.40
40946;BME280;55635;50.264;11.918;2022-11-15T09:23:29;95308.25;;;11.29;70.42
40946;BME280;55635;50.264;11.918;2022-11-15T09:26:28;95307.13;;;11.52;67.92
40946;BME280;55635;50.264;11.918;2022-11-15T09:29:28;95307.13;;;11.52;69.07
40946;BME280;55635;50.264;11.918;2022-11-15T09:32:29;95307.66;;;11.75;68.14
40946;BME280;55635;50.264;11.918;2022-11-15T09:35:29;95294.03;;;11.50;67.75
40946;BME280;55635;50.264;11.918;2022-11-15T09:38:28;95310.31;;;10.93;70.61
40946;BME280;55635;50.264;11.918;2022-11-15T09:45:34;95303.63;;;12.05;68.35
40946;BME280;55635;50.264;11.918;2022-11-15T09:49:00;95291.22;;;12.32;66.68
40946;BME280;55635;50.264;11.918;2022-11-15T09:51:49;95283.22;;;12.51;65.91
40946;BME280;55635;50.264;11.918;2022-11-15T09:54:41;95289.78;;;12.69;63.88
40946;BME280;55635;50.264;11.918;2022-11-15T09:57:54;95278.00;;;13.29;62.71
40946;BME280;55635;50.264;11.918;2022-11-15T10:00:42;95272.28;;;13.25;61.71
40946;BME280;55635;50.264;11.918;2022-11-15T10:03:37;95279.72;;;12.84;64.00
40946;BME280;55635;50.264;11.918;2022-11-15T10:06:26;95259.88;;;12.80;65.55
40946;BME280;55635;50.264;11.918;2022-11-15T10:09:21;95266.59;;;12.89;65.86
40946;BME280;55635;50.264;11.918;2022-11-15T10:12:06;95266.78;;;13.07;63.32
40946;BME280;55635;50.264;11.918;2022-11-15T10:14:50;95270.94;;;12.64;65.28
40946;BME280;55635;50.264;11.918;2022-11-15T10:21:02;95255.97;;;12.89;65.92
40946;BME280;55635;50.264;11.918;2022-11-15T10:23:47;95249.25;;;13.50;64.08
40946;BME280;55635;50.264;11.918;2022-11-15T10:26:28;95251.38;;;14.04;62.12
40946;BME280;55635;50.264;11.918;2022-11-15T10:29:09;95250.78;;;13.64;62.55
40946;BME280;55635;50.264;11.918;2022-11-15T10:31:50;95233.44;;;13.55;62.55
40946;BME280;55635;50.264;11.918;2022-11-15T10:34:36;95254.34;;;13.90;62.77
40946;BME280;55635;50.264;11.918;2022-11-15T10:37:31;95239.47;;;14.07;61.66
40946;BME280;55635;50.264;11.918;2022-11-15T10:40:22;95236.63;;;14.02;60.70
40946;BME280;55635;50.264;11.918;2022-11-15T10:45:50;95231.38;;;13.57;63.30
40946;BME280;55635;50.264;11.918;2022-11-15T10:48:33;95222.22;;;13.40;63.04
40946;BME280;55635;50.264;11.918;2022-11-15T10:51:25;95229.56;;;13.51;63.52
40946;BME280;55635;50.264;11.918;2022-11-15T10:54:10;95220.47;;;13.66;64.21
40946;BME280;55635;50.264;11.918;2022-11-15T10:56:55;95214.19;;;13.02;64.08
40946;BME280;55635;50.264;11.918;2022-11-15T10:59:38;95218.84;;;13.58;63.51
40946;BME280;55635;50.264;11.918;2022-11-15T11:02:38;95208.31;;;13.38;64.01
40946;BME280;55635;50.264;11.918;2022-11-15T11:05:37;95209.72;;;13.47;63.60
40946;BME280;55635;50.264;11.918;2022-11-15T11:08:23;95207.41;;;13.13;64.66
40946;BME280;55635;50.264;11.918;2022-11-15T11:11:05;95194.03;;;13.26;64.94
40946;BME280;55635;50.264;11.918;2022-11-15T11:13:47;95190.16;;;13.67;64.98
40946;BME280;55635;50.264;11.918;2022-11-15T11:16:48;95197.41;;;13.84;64.43
40946;BME280;55635;50.264;11.918;2022-11-15T11:26:07;95186.91;;;14.14;61.15
40946;BME280;55635;50.264;11.918;2022-11-15T11:33:01;95166.81;;;14.43;61.49
40946;BME280;55635;50.264;11.918;2022-11-15T11:52:51;95117.59;;;15.23;60.85
40946;BME280;55635;50.264;11.918;2022-11-15T11:55:43;95139.03;;;15.53;58.60
40946;BME280;55635;50.264;11.918;2022-11-15T11:58:36;95119.78;;;15.62;59.54
40946;BME280;55635;50.264;11.918;2022-11-15T12:01:48;95127.84;;;15.86;59.31
40946;BME280;55635;50.264;11.918;2022-11-15T12:04:40;95119.34;;;15.77;59.63
40946;BME280;55635;50.264;11.918;2022-11-15T12:07:29;95116.25;;;15.32;59.60
40946;BME280;55635;50.264;11.918;2022-11-15T12:10:28;95112.81;;;15.43;59.18
40946;BME280;55635;50.264;11.918;2022-11-15T12:13:16;95110.94;;;15.62;58.85
40946;BME280;55635;50.264;11.918;2022-11-15T12:16:21;95109.66;;;15.53;58.35
40946;BME280;55635;50.264;11.918;2022-11-15T12:19:04;95110.16;;;15.43;60.11
40946;BME280;55635;50.264;11.918;2022-11-15T12:21:59;95109.50;;;16.01;58.64
40946;BME280;55635;50.264;11.918;2022-11-15T12:24:48;95102.28;;;15.90;59.44
40946;BME280;55635;50.264;11.918;2022-11-15T12:27:46;95102.44;;;16.29;58.79
40946;BME280;55635;50.264;11.918;2022-11-15T12:30:52;95113.38;;;16.63;58.04
40946;BME280;55635;50.264;11.918;2022-11-15T12:33:46;95095.75;;;16.90;55.97
40946;BME280;55635;50.264;11.918;2022-11-15T12:36:54;95101.25;;;16.72;57.22
40946;BME280;55635;50.264;11.918;2022-11-15T12:43:42;95102.78;;;16.56;57.01
40946;BME280;55635;50.264;11.918;2022-11-15T12:46:03;95087.88;;;16.25;57.67
40946;BME280;55635;50.264;11.918;2022-11-15T12:48:49;95099.72;;;16.53;57.68
40946;BME280;55635;50.264;11.918;2022-11-15T12:59:54;95091.09;;;15.81;57.69
40946;BME280;55635;50.264;11.918;2022-11-15T13:02:42;95083.34;;;16.26;57.88
40946;BME280;55635;50.264;11.918;2022-11-15T13:08:45;95076.00;;;15.87;59.16
40946;BME280;55635;50.264;11.918;2022-11-15T13:11:49;95074.34;;;15.62;58.91
40946;BME280;55635;50.264;11.918;2022-11-15T13:23:09;95068.47;;;14.83;62.09
40946;BME280;55635;50.264;11.918;2022-11-15T13:28:51;95047.03;;;14.71;62.69
40946;BME280;55635;50.264;11.918;2022-11-15T13:31:43;95050.25;;;14.61;63.15
40946;BME280;55635;50.264;11.918;2022-11-15T13:34:33;95065.13;;;14.69;62.16
40946;BME280;55635;50.264;11.918;2022-11-15T13:40:27;95055.22;;;14.58;64.31
40946;BME280;55635;50.264;11.918;2022-11-15T13:49:07;95042.06;;;14.20;63.85
40946;BME280;55635;50.264;11.918;2022-11-15T13:51:53;95057.53;;;14.11;64.52
40946;BME280;55635;50.264;11.918;2022-11-15T13:55:24;95051.13;;;13.94;65.56
40946;BME280;55635;50.264;11.918;2022-11-15T13:58:01;95050.16;;;13.89;65.13
40946;BME280;55635;50.264;11.918;2022-11-15T14:00:46;95046.97;;;13.80;65.90
40946;BME280;55635;50.264;11.918;2022-11-15T14:03:40;95041.25;;;13.77;65.99
40946;BME280;55635;50.264;11.918;2022-11-15T14:06:28;95034.22;;;13.82;67.57
40946;BME280;55635;50.264;11.918;2022-11-15T14:11:55;95027.38;;;14.11;66.67
40946;BME280;55635;50.264;11.918;2022-11-15T14:14:45;95017.72;;;13.92;67.13
40946;BME280;55635;50.264;11.918;2022-11-15T14:23:27;95014.53;;;13.83;66.86
40946;BME280;55635;50.264;11.918;2022-11-15T14:29:29;95011.44;;;13.86;67.03
40946;BME280;55635;50.264;11.918;2022-11-15T14:32:19;95000.56;;;13.88;67.18
40946;BME280;55635;50.264;11.918;2022-11-15T14:35:02;94998.88;;;13.93;66.70
40946;BME280;55635;50.264;11.918;2022-11-15T14:37:44;94985.81;;;13.85;66.74
40946;BME280;55635;50.264;11.918;2022-11-15T14:40:25;94979.41;;;13.93;66.29
40946;BME280;55635;50.264;11.918;2022-11-15T14:43:10;94980.88;;;13.89;66.75
40946;BME280;55635;50.264;11.918;2022-11-15T14:45:51;94982.00;;;13.99;66.21
40946;BME280;55635;50.264;11.918;2022-11-15T14:48:32;94972.59;;;13.79;66.43
40946;BME280;55635;50.264;11.918;2022-11-15T14:51:17;94966.81;;;13.82;66.52
40946;BME280;55635;50.264;11.918;2022-11-15T14:53:58;94970.59;;;13.92;65.70
40946;BME280;55635;50.264;11.918;2022-11-15T14:56:39;94966.06;;;13.75;66.29
40946;BME280;55635;50.264;11.918;2022-11-15T14:59:20;94968.44;;;13.83;66.16
40946;BME280;55635;50.264;11.918;2022-11-15T15:02:00;94961.31;;;13.77;65.72
40946;BME280;55635;50.264;11.918;2022-11-15T15:04:41;94964.28;;;13.69;65.97
40946;BME280;55635;50.264;11.918;2022-11-15T15:07:22;94956.44;;;13.74;65.16
40946;BME280;55635;50.264;11.918;2022-11-15T15:10:03;94957.75;;;13.64;66.51
40946;BME280;55635;50.264;11.918;2022-11-15T15:12:45;94954.19;;;13.52;66.17
40946;BME280;55635;50.264;11.918;2022-11-15T15:15:34;94945.47;;;13.45;66.21
40946;BME280;55635;50.264;11.918;2022-11-15T15:18:16;94956.31;;;13.44;66.26
40946;BME280;55635;50.264;11.918;2022-11-15T15:20:58;94958.44;;;13.35;66.16
40946;BME280;55635;50.264;11.918;2022-11-15T15:23:48;94954.44;;;13.26;66.75
40946;BME280;55635;50.264;11.918;2022-11-15T15:26:29;94954.03;;;13.23;66.88
40946;BME280;55635;50.264;11.918;2022-11-15T15:29:10;94946.78;;;13.05;67.27
40946;BME280;55635;50.264;11.918;2022-11-15T15:31:51;94943.59;;;12.96;67.32
40946;BME280;55635;50.264;11.918;2022-11-15T15:34:32;94938.03;;;12.67;69.16
40946;BME280;55635;50.264;11.918;2022-11-15T15:37:25;94943.75;;;12.70;68.31
40946;BME280;55635;50.264;11.918;2022-11-15T15:40:19;94947.88;;;12.66;68.56
40946;BME280;55635;50.264;11.918;2022-11-15T15:43:03;94944.66;;;12.57;69.55
40946;BME280;55635;50.264;11.918;2022-11-15T15:45:45;94942.44;;;12.48;68.53
40946;BME280;55635;50.264;11.918;2022-11-15T15:48:25;94949.84;;;12.46;69.44
40946;BME280;55635;50.264;11.918;2022-11-15T15:51:07;94955.00;;;12.41;69.92
40946;BME280;55635;50.264;11.918;2022-11-15T15:53:48;94963.44;;;12.25;70.10
40946;BME280;55635;50.264;11.918;2022-11-15T15:56:29;94959.59;;;12.14;69.20
40946;BME280;55635;50.264;11.918;2022-11-15T15:59:10;94954.97;;;11.90;70.60
40946;BME280;55635;50.264;11.918;2022-11-15T16:01:50;94950.34;;;11.72;72.37
40946;BME280;55635;50.264;11.918;2022-11-15T16:04:31;94960.53;;;11.82;72.00
40946;BME280;55635;50.264;11.918;2022-11-15T16:07:20;94962.59;;;11.67;72.08
40946;BME280;55635;50.264;11.918;2022-11-15T16:13:03;94957.47;;;11.72;69.83
40946;BME280;55635;50.264;11.918;2022-11-15T16:15:45;94951.97;;;11.54;71.85
40946;BME280;55635;50.264;11.918;2022-11-15T16:18:28;94947.91;;;11.38;73.07
40946;BME280;55635;50.264;11.918;2022-11-15T16:21:09;94950.78;;;11.43;72.93
40946;BME280;55635;50.264;11.918;2022-11-15T16:23:49;94950.38;;;11.39;73.00
40946;BME280;55635;50.264;11.918;2022-11-15T16:26:30;94942.63;;;11.31;73.44
40946;BME280;55635;50.264;11.918;2022-11-15T16:29:13;94952.03;;;11.27;72.83
40946;BME280;55635;50.264;11.918;2022-11-15T16:31:54;94948.16;;;11.17;71.68
40946;BME280;55635;50.264;11.918;2022-11-15T16:34:36;94943.06;;;10.96;73.92
40946;BME280;55635;50.264;11.918;2022-11-15T16:37:24;94945.28;;;10.66;75.11
40946;BME280;55635;50.264;11.918;2022-11-15T16:40:28;94943.25;;;10.81;74.74
40946;BME280;55635;50.264;11.918;2022-11-15T16:43:10;94939.38;;;10.83;74.74
40946;BME280;55635;50.264;11.918;2022-11-15T16:45:51;94932.03;;;10.79;74.72
40946;BME280;55635;50.264;11.918;2022-11-15T16:48:32;94933.66;;;10.86;74.29
40946;BME280;55635;50.264;11.918;2022-11-15T16:51:15;94929.59;;;10.77;72.76
40946;BME280;55635;50.264;11.918;2022-11-15T16:53:56;94925.69;;;10.60;72.81
40946;BME280;55635;50.264;11.918;2022-11-15T16:56:37;94934.88;;;10.58;73.90
40946;BME280;55635;50.264;11.918;2022-11-15T16:59:21;94941.78;;;10.59;73.69
40946;BME280;55635;50.264;11.918;2022-11-15T17:02:02;94944.84;;;10.49;73.97
40946;BME280;55635;50.264;11.918;2022-11-15T17:04:43;94941.72;;;10.26;76.69
40946;BME280;55635;50.264;11.918;2022-11-15T17:07:24;94953.13;;;10.20;76.93
40946;BME280;55635;50.264;11.918;2022-11-15T17:10:07;94956.00;;;10.31;75.37
40946;BME280;55635;50.264;11.918;2022-11-15T17:12:50;94944.16;;;10.27;74.18
40946;BME280;55635;50.264;11.918;2022-11-15T17:15:31;94952.34;;;10.32;74.06
40946;BME280;55635;50.264;11.918;2022-11-15T17:18:12;94942.75;;;10.31;74.23
40946;BME280;55635;50.264;11.918;2022-11-15T17:20:55;94947.84;;;10.26;74.33